Time;durP1;ratioP1;P1;durP2;ratioP2;P2;SDS_P1;SDS_P2;PMS_P1;PMS_P2;Temp;Humidity;BMP_temperature;BMP_pressure;BME280_temperature;BME280_humidity;BME280_pressure;Samples;Min_cycle;Max_cycle;Signal;HPM_P1;HPM_P2
2023/07/26 00:01:22;;;;;;;0.10;0.10;;;;;;;10.77;100.00;96112.75;5042666;28;20127;-77
2023/07/26 00:04:08;;;;;;;0.10;0.10;;;;;;;10.69;100.00;96111.34;5037224;28;20666;-77
2023/07/26 00:06:54;;;;;;;0.10;0.10;;;;;;;10.75;100.00;96115.69;5039223;28;20036;-78
2023/07/26 00:09:40;;;;;;;0.10;0.10;;;;;;;10.79;100.00;96116.78;5039974;28;20048;-77
2023/07/26 00:12:26;;;;;;;0.10;0.10;;;;;;;10.75;100.00;96117.56;5039834;28;20048;-78
2023/07/26 00:15:12;;;;;;;0.10;0.10;;;;;;;10.68;100.00;96119.66;5035546;28;20047;-77
2023/07/26 00:17:58;;;;;;;0.13;0.13;;;;;;;10.66;100.00;96130.63;5038657;28;20556;-78
2023/07/26 00:20:44;;;;;;;0.10;0.10;;;;;;;10.50;100.00;96128.84;5036298;28;20412;-78
2023/07/26 00:23:30;;;;;;;0.10;0.10;;;;;;;10.52;100.00;96126.75;5021148;28;20124;-78
2023/07/26 00:26:16;;;;;;;0.10;0.10;;;;;;;10.42;100.00;96123.97;5038610;28;20044;-77
2023/07/26 00:29:02;;;;;;;0.10;0.10;;;;;;;10.43;100.00;96125.63;5020391;28;20924;-77
2023/07/26 00:31:48;;;;;;;0.10;0.10;;;;;;;10.35;100.00;96137.59;5039264;28;20040;-77
2023/07/26 00:34:35;;;;;;;0.10;0.10;;;;;;;10.36;100.00;96130.38;5024222;28;20051;-77
2023/07/26 00:37:21;;;;;;;0.20;0.20;;;;;;;10.24;100.00;96134.00;5022973;28;20045;-77
2023/07/26 00:40:07;;;;;;;0.10;0.10;;;;;;;10.23;100.00;96124.38;5038048;28;20052;-78
2023/07/26 00:42:53;;;;;;;0.10;0.10;;;;;;;10.04;100.00;96131.13;5037722;28;20812;-76
2023/07/26 00:45:40;;;;;;;0.20;0.20;;;;;;;9.94;100.00;96139.81;5041504;28;20700;-77
2023/07/26 00:48:26;;;;;;;0.10;0.10;;;;;;;10.05;100.00;96144.22;5034060;28;20072;-76
2023/07/26 00:51:13;;;;;;;0.10;0.10;;;;;;;10.01;100.00;96131.59;5040436;28;20076;-78
2023/07/26 00:53:59;;;;;;;0.10;0.10;;;;;;;10.09;100.00;96139.16;5042107;28;20040;-78
2023/07/26 00:56:45;;;;;;;0.10;0.10;;;;;;;10.03;100.00;96134.81;5024079;28;20052;-78
2023/07/26 00:59:31;;;;;;;0.10;0.10;;;;;;;9.98;100.00;96135.59;5031720;28;20569;-78
2023/07/26 01:02:16;;;;;;;0.20;0.20;;;;;;;9.89;100.00;96137.13;5022977;28;20519;-78
2023/07/26 01:05:03;;;;;;;0.10;0.10;;;;;;;9.79;100.00;96131.66;5020275;28;20040;-78
2023/07/26 01:08:09;;;;;;;0.10;0.10;;;;;;;9.90;100.00;96132.59;5040631;28;21226;-78
2023/07/26 01:11:02;;;;;;;0.13;0.13;;;;;;;9.93;100.00;96124.03;5024502;28;20051;-78
2023/07/26 01:13:59;;;;;;;0.10;0.10;;;;;;;10.05;100.00;96127.38;5030095;28;20049;-78
2023/07/26 01:16:46;;;;;;;0.10;0.10;;;;;;;10.24;100.00;96138.53;5041709;28;20139;-79
2023/07/26 01:19:32;;;;;;;0.10;0.10;;;;;;;10.26;100.00;96136.41;5037524;28;20132;-79
2023/07/26 01:22:18;;;;;;;0.10;0.10;;;;;;;10.30;100.00;96138.34;5038942;28;20053;-79
2023/07/26 01:25:05;;;;;;;0.10;0.10;;;;;;;10.27;100.00;96135.34;5038136;28;20087;-79
2023/07/26 01:27:51;;;;;;;0.10;0.10;;;;;;;10.28;100.00;96134.31;5039748;28;20060;-79
2023/07/26 01:30:37;;;;;;;0.10;0.10;;;;;;;10.33;100.00;96129.78;5030618;28;20038;-78
2023/07/26 01:33:24;;;;;;;0.10;0.10;;;;;;;10.47;100.00;96126.72;5039675;28;20040;-78
2023/07/26 01:36:12;;;;;;;0.10;0.10;;;;;;;10.54;100.00;96130.78;5041488;28;20123;-79
2023/07/26 01:38:59;;;;;;;0.20;0.20;;;;;;;10.62;100.00;96124.16;5036434;28;20051;-78
2023/07/26 01:41:49;;;;;;;0.10;0.10;;;;;;;10.69;100.00;96131.97;5022860;28;20052;-79
2023/07/26 01:44:36;;;;;;;0.10;0.10;;;;;;;10.65;100.00;96137.00;5030422;28;20057;-77
2023/07/26 01:47:22;;;;;;;0.10;0.10;;;;;;;10.56;100.00;96127.84;5026552;28;20056;-78
2023/07/26 01:50:08;;;;;;;0.20;0.20;;;;;;;10.63;100.00;96133.78;5030973;28;20182;-78
2023/07/26 01:52:54;;;;;;;0.20;0.20;;;;;;;10.73;100.00;96144.56;5035637;28;20084;-78
2023/07/26 01:55:41;;;;;;;0.20;0.20;;;;;;;10.94;100.00;96150.06;5016010;28;20040;-79
2023/07/26 01:58:28;;;;;;;0.10;0.10;;;;;;;11.05;100.00;96146.38;5026106;28;20668;-77
2023/07/26 02:01:15;;;;;;;0.10;0.10;;;;;;;11.14;100.00;96150.19;5038076;28;20130;-77
2023/07/26 02:04:01;;;;;;;0.10;0.10;;;;;;;11.22;100.00;96147.03;5024715;28;20956;-78
2023/07/26 02:06:47;;;;;;;0.13;0.13;;;;;;;11.28;100.00;96151.31;5019712;28;20598;-77
2023/07/26 02:09:32;;;;;;;0.10;0.10;;;;;;;11.33;100.00;96143.31;5022806;28;20068;-78
2023/07/26 02:12:18;;;;;;;0.20;0.20;;;;;;;11.37;100.00;96139.06;5037874;28;20369;-78
2023/07/26 02:15:05;;;;;;;0.10;0.10;;;;;;;11.42;100.00;96132.91;5023301;28;20047;-77
2023/07/26 02:17:51;;;;;;;0.10;0.10;;;;;;;11.24;100.00;96128.81;5019751;28;20045;-78
2023/07/26 02:20:37;;;;;;;0.10;0.10;;;;;;;11.06;100.00;96138.09;5037585;28;20126;-77
2023/07/26 02:23:23;;;;;;;0.10;0.10;;;;;;;11.07;100.00;96131.69;5034776;28;20034;-77
2023/07/26 02:26:09;;;;;;;0.20;0.20;;;;;;;10.93;100.00;96148.44;5033595;28;20037;-77
2023/07/26 02:28:55;;;;;;;0.15;0.10;;;;;;;11.03;100.00;96148.50;5020058;28;20551;-77
2023/07/26 02:31:41;;;;;;;0.10;0.10;;;;;;;11.13;100.00;96146.72;5021464;28;20041;-79
2023/07/26 02:34:27;;;;;;;0.10;0.10;;;;;;;11.18;100.00;96143.25;5027763;28;20055;-78
2023/07/26 02:37:13;;;;;;;0.10;0.10;;;;;;;11.22;100.00;96141.66;5037956;28;20051;-78
2023/07/26 02:39:59;;;;;;;0.10;0.10;;;;;;;11.28;100.00;96143.28;5041098;28;20120;-78
2023/07/26 02:42:45;;;;;;;0.20;0.20;;;;;;;11.20;100.00;96141.09;5039466;28;20045;-79
2023/07/26 02:45:31;;;;;;;0.10;0.10;;;;;;;11.16;100.00;96153.41;5037939;28;20052;-77
2023/07/26 02:48:17;;;;;;;0.10;0.10;;;;;;;11.13;100.00;96146.72;5038743;28;20048;-78
2023/07/26 02:51:03;;;;;;;0.20;0.20;;;;;;;11.12;100.00;96152.31;5041046;28;20867;-76
2023/07/26 02:53:49;;;;;;;0.10;0.10;;;;;;;11.16;100.00;96148.88;5037853;28;20092;-76
2023/07/26 02:56:35;;;;;;;0.10;0.10;;;;;;;11.20;100.00;96146.47;5028787;28;20164;-75
2023/07/26 02:59:21;;;;;;;0.10;0.10;;;;;;;11.04;100.00;96144.75;5017073;28;20041;-76
2023/07/26 03:02:07;;;;;;;0.20;0.20;;;;;;;11.00;100.00;96141.81;5016825;28;20057;-75
2023/07/26 03:04:53;;;;;;;0.17;0.17;;;;;;;11.05;100.00;96135.66;4997752;28;20049;-79
2023/07/26 03:07:39;;;;;;;0.10;0.10;;;;;;;10.98;100.00;96146.63;5015754;28;20072;-76
2023/07/26 03:10:25;;;;;;;0.20;0.20;;;;;;;10.99;100.00;96150.09;5007765;28;20235;-78
2023/07/26 03:13:10;;;;;;;0.20;0.20;;;;;;;11.05;100.00;96152.56;5002685;28;20515;-77
2023/07/26 03:15:56;;;;;;;0.10;0.10;;;;;;;11.15;100.00;96157.16;5021308;28;20498;-77
2023/07/26 03:18:42;;;;;;;0.13;0.13;;;;;;;11.14;100.00;96160.91;5010086;28;20052;-77
2023/07/26 03:21:28;;;;;;;0.10;0.10;;;;;;;11.15;100.00;96151.81;5003849;28;20122;-76
2023/07/26 03:24:14;;;;;;;0.10;0.10;;;;;;;11.20;100.00;96162.53;5000063;28;20042;-76
2023/07/26 03:26:59;;;;;;;0.10;0.10;;;;;;;11.28;100.00;96167.41;5019760;28;20797;-76
2023/07/26 03:29:45;;;;;;;0.10;0.10;;;;;;;11.27;100.00;96170.34;5011167;28;20059;-76
2023/07/26 03:32:31;;;;;;;0.15;0.15;;;;;;;11.21;100.00;96169.53;5014505;28;20555;-76
2023/07/26 03:35:17;;;;;;;0.10;0.10;;;;;;;11.06;100.00;96169.44;5022919;28;20081;-77
2023/07/26 03:38:03;;;;;;;0.10;0.10;;;;;;;11.05;100.00;96175.81;5016714;28;20125;-75
2023/07/26 03:40:49;;;;;;;0.10;0.10;;;;;;;11.04;100.00;96168.84;5023108;28;20099;-76
2023/07/26 03:43:35;;;;;;;0.10;0.10;;;;;;;11.10;100.00;96167.84;5021229;28;20033;-77
2023/07/26 03:46:20;;;;;;;0.10;0.10;;;;;;;11.22;100.00;96173.81;5020152;28;20253;-76
2023/07/26 03:49:06;;;;;;;0.10;0.10;;;;;;;11.26;100.00;96174.09;5022119;28;20164;-77
2023/07/26 03:51:52;;;;;;;0.10;0.10;;;;;;;11.12;100.00;96165.69;5020082;28;20113;-76
2023/07/26 03:54:38;;;;;;;0.10;0.10;;;;;;;11.10;100.00;96160.59;4999393;28;20200;-76
2023/07/26 03:57:24;;;;;;;0.20;0.20;;;;;;;11.10;100.00;96165.16;5013930;28;20045;-76
2023/07/26 04:00:10;;;;;;;0.10;0.10;;;;;;;10.99;100.00;96161.63;5012622;28;20168;-76
2023/07/26 04:02:59;;;;;;;0.10;0.10;;;;;;;11.10;100.00;96162.47;5015335;28;20056;-77
2023/07/26 04:05:45;;;;;;;0.15;0.15;;;;;;;11.14;100.00;96168.94;5025153;28;20605;-76
2023/07/26 04:08:30;;;;;;;0.10;0.10;;;;;;;11.13;100.00;96164.66;5016244;28;20067;-77
2023/07/26 04:11:16;;;;;;;0.10;0.10;;;;;;;11.09;100.00;96172.38;5019985;28;20042;-76
2023/07/26 04:14:02;;;;;;;0.10;0.10;;;;;;;11.06;100.00;96169.44;5022586;28;20049;-76
2023/07/26 04:16:49;;;;;;;0.10;0.10;;;;;;;11.03;100.00;96175.28;5014729;28;20041;-77
2023/07/26 04:19:34;;;;;;;0.10;0.10;;;;;;;11.10;100.00;96171.31;5023147;28;20041;-76
2023/07/26 04:22:20;;;;;;;0.10;0.10;;;;;;;11.21;100.00;96172.19;5023195;28;21376;-77
2023/07/26 04:25:07;;;;;;;0.10;0.10;;;;;;;11.26;100.00;96174.09;5021366;28;20935;-77
2023/07/26 04:27:52;;;;;;;0.10;0.10;;;;;;;11.15;100.00;96173.22;5023481;28;20510;-76
2023/07/26 04:30:38;;;;;;;0.10;0.10;;;;;;;11.11;100.00;96182.84;5012861;28;20045;-77
2023/07/26 04:33:24;;;;;;;0.13;0.13;;;;;;;11.08;100.00;96176.13;5023335;28;20037;-77
2023/07/26 04:36:11;;;;;;;0.10;0.10;;;;;;;11.08;100.00;96188.72;5022656;28;20124;-77
2023/07/26 04:38:57;;;;;;;0.10;0.10;;;;;;;11.05;100.00;96182.00;5017584;28;20041;-78
2023/07/26 04:41:43;;;;;;;0.10;0.10;;;;;;;11.15;100.00;96187.41;5021622;28;20049;-78
2023/07/26 04:44:29;;;;;;;0.10;0.10;;;;;;;11.21;100.00;96187.47;5014596;28;20041;-77
2023/07/26 04:47:15;;;;;;;0.10;0.10;;;;;;;11.34;100.00;96189.66;5021162;28;20046;-77
2023/07/26 04:50:01;;;;;;;0.20;0.20;;;;;;;11.47;100.00;96180.38;5020714;28;20128;-77
2023/07/26 04:52:47;;;;;;;0.10;0.10;;;;;;;11.55;100.00;96185.22;5021550;28;20041;-77
2023/07/26 04:55:40;;;;;;;0.10;0.10;;;;;;;11.38;100.00;96188.91;5019628;28;20047;-77
2023/07/26 04:58:28;;;;;;;0.10;0.10;;;;;;;11.35;100.00;96188.59;5036271;28;20055;-78
2023/07/26 05:01:14;;;;;;;0.10;0.10;;;;;;;11.33;100.00;96196.91;5035340;28;20063;-77
2023/07/26 05:03:59;;;;;;;0.10;0.10;;;;;;;11.34;100.00;96187.00;5034198;28;20092;-78
2023/07/26 05:06:45;;;;;;;0.10;0.10;;;;;;;11.44;100.00;96193.22;5037096;28;20037;-78
2023/07/26 05:09:31;;;;;;;0.10;0.10;;;;;;;11.36;100.00;96193.72;5042265;28;20083;-76
2023/07/26 05:12:17;;;;;;;0.10;0.10;;;;;;;11.31;100.00;96192.88;5042306;28;20068;-77
2023/07/26 05:15:03;;;;;;;0.10;0.10;;;;;;;11.48;100.00;96203.41;5041995;28;20056;-76
2023/07/26 05:17:50;;;;;;;0.20;0.20;;;;;;;11.36;100.00;96200.91;5028493;28;20048;-78
2023/07/26 05:20:37;;;;;;;0.10;0.10;;;;;;;11.50;100.00;96206.63;5041440;28;20033;-78
2023/07/26 05:23:22;;;;;;;0.10;0.10;;;;;;;11.42;100.00;96206.06;5034285;28;20091;-78
2023/07/26 05:26:08;;;;;;;0.10;0.10;;;;;;;11.37;100.00;96200.69;5035013;28;20086;-78
2023/07/26 05:28:54;;;;;;;0.10;0.10;;;;;;;11.27;100.00;96213.19;5039109;28;20072;-79
2023/07/26 05:31:40;;;;;;;0.17;0.17;;;;;;;11.20;100.00;96213.41;5039810;28;20168;-78
2023/07/26 05:34:26;;;;;;;0.10;0.10;;;;;;;11.37;100.00;96214.09;5039944;28;20570;-78
2023/07/26 05:37:11;;;;;;;0.10;0.10;;;;;;;11.40;100.00;96215.41;5041858;28;20044;-78
2023/07/26 05:39:57;;;;;;;0.10;0.10;;;;;;;11.43;100.00;96213.03;5024060;28;20067;-79
2023/07/26 05:42:43;;;;;;;0.10;0.10;;;;;;;11.52;100.00;96215.25;5038194;28;20456;-77
2023/07/26 05:45:29;;;;;;;0.10;0.10;;;;;;;11.62;100.00;96209.91;5041783;28;20036;-78
2023/07/26 05:48:15;;;;;;;0.10;0.10;;;;;;;11.58;100.00;96224.88;5020453;28;20519;-77
2023/07/26 05:51:00;;;;;;;0.10;0.10;;;;;;;11.75;100.00;96222.84;5042894;28;20455;-78
2023/07/26 05:53:46;;;;;;;0.10;0.10;;;;;;;11.89;100.00;96221.31;5039358;28;20849;-79
2023/07/26 05:56:32;;;;;;;0.10;0.10;;;;;;;11.87;100.00;96226.13;5035449;28;20507;-76
2023/07/26 05:59:18;;;;;;;0.10;0.10;;;;;;;11.76;100.00;96224.47;5039472;28;20109;-76
2023/07/26 06:02:04;;;;;;;0.10;0.10;;;;;;;11.49;100.00;96226.44;5037388;28;20077;-77
2023/07/26 06:04:50;;;;;;;0.20;0.20;;;;;;;11.23;100.00;96228.97;5039905;28;20619;-76
2023/07/26 06:07:36;;;;;;;0.10;0.10;;;;;;;11.25;100.00;96226.84;5032614;28;20041;-76
2023/07/26 06:10:22;;;;;;;0.10;0.10;;;;;;;11.37;100.00;96227.47;5025926;28;20725;-76
2023/07/26 06:13:12;;;;;;;0.10;0.10;;;;;;;11.55;100.00;96230.78;5039360;28;20052;-77
2023/07/26 06:15:58;;;;;;;0.10;0.10;;;;;;;12.01;100.00;96225.66;5042157;28;20101;-77
2023/07/26 06:18:43;;;;;;;0.10;0.10;;;;;;;12.22;100.00;96220.09;5036748;28;20045;-76
2023/07/26 06:21:29;;;;;;;0.10;0.10;;;;;;;12.47;100.00;96215.88;5035713;28;20042;-76
2023/07/26 06:24:15;;;;;;;0.10;0.10;;;;;;;12.58;100.00;96222.03;5034159;28;20041;-77
2023/07/26 06:27:02;;;;;;;0.10;0.10;;;;;;;12.63;100.00;96235.47;5040552;28;20059;-77
2023/07/26 06:29:48;;;;;;;0.10;0.10;;;;;;;12.45;100.00;96234.09;5036860;28;20045;-78
2023/07/26 06:32:34;;;;;;;0.10;0.10;;;;;;;12.65;100.00;96233.31;5039478;28;20048;-77
2023/07/26 06:35:20;;;;;;;0.10;0.10;;;;;;;12.72;100.00;96233.88;5023711;28;20066;-77
2023/07/26 06:38:06;;;;;;;0.17;0.17;;;;;;;12.70;100.00;96230.66;5030671;28;20053;-78
2023/07/26 06:40:51;;;;;;;0.20;0.20;;;;;;;12.57;100.00;96223.91;5038649;28;20580;-77
2023/07/26 06:43:37;;;;;;;0.10;0.10;;;;;;;12.88;100.00;96232.81;5042860;28;20050;-77
2023/07/26 06:46:26;;;;;;;0.10;0.10;;;;;;;13.30;100.00;96235.22;5032397;28;20033;-77
2023/07/26 06:49:12;;;;;;;0.10;0.10;;;;;;;13.50;100.00;96231.72;5021108;28;20077;-79
2023/07/26 06:51:57;;;;;;;0.10;0.10;;;;;;;13.79;100.00;96233.78;5012752;28;20457;-79
2023/07/26 06:54:43;;;;;;;0.10;0.10;;;;;;;13.95;100.00;96240.72;5038401;28;20454;-78
2023/07/26 06:57:29;;;;;;;0.20;0.20;;;;;;;14.07;100.00;96233.13;5039505;28;20056;-78
2023/07/26 07:00:15;;;;;;;0.10;0.10;;;;;;;14.24;100.00;96240.88;5037727;28;20041;-77
2023/07/26 07:03:03;;;;;;;0.20;0.20;;;;;;;14.16;100.00;96242.25;5028016;28;20305;-78
2023/07/26 07:05:49;;;;;;;0.20;0.20;;;;;;;14.13;100.00;96237.41;5038918;28;20120;-78
2023/07/26 07:08:36;;;;;;;0.10;0.10;;;;;;;14.02;100.00;96233.16;5033511;28;20129;-77
2023/07/26 07:11:21;;;;;;;0.10;0.10;;;;;;;14.07;100.00;96235.81;5034384;28;20061;-77
2023/07/26 07:14:07;;;;;;;0.10;0.10;;;;;;;13.95;100.00;96246.09;5039872;28;20053;-78
2023/07/26 07:16:53;;;;;;;0.10;0.10;;;;;;;13.98;100.00;96240.16;5032933;28;20081;-78
2023/07/26 07:19:39;;;;;;;0.10;0.10;;;;;;;14.05;100.00;96248.75;5038428;28;20552;-78
2023/07/26 07:22:25;;;;;;;0.10;0.10;;;;;;;14.20;100.00;96243.31;5039967;28;20072;-76
2023/07/26 07:25:11;;;;;;;0.10;0.10;;;;;;;14.41;100.00;96230.56;5040936;28;20088;-79
2023/07/26 07:27:59;;;;;;;0.10;0.10;;;;;;;14.67;100.00;96238.50;5040632;28;21027;-77
2023/07/26 07:30:46;;;;;;;0.13;0.13;;;;;;;14.78;100.00;96231.94;5032098;28;20190;-79
2023/07/26 07:33:34;;;;;;;0.13;0.13;;;;;;;14.40;100.00;96225.47;5033726;28;20783;-78
2023/07/26 07:36:20;;;;;;;0.20;0.20;;;;;;;14.52;100.00;96234.00;5042700;28;20041;-79
2023/07/26 07:39:09;;;;;;;0.20;0.20;;;;;;;15.10;100.00;96230.63;5036495;28;20411;-79
2023/07/26 07:41:54;;;;;;;0.20;0.20;;;;;;;15.56;100.00;96236.41;5036674;28;20052;-77
2023/07/26 07:44:40;;;;;;;0.10;0.10;;;;;;;15.96;100.00;96229.00;5041658;28;20042;-76
2023/07/26 07:47:26;;;;;;;0.20;0.20;;;;;;;16.01;100.00;96237.81;5025196;28;20041;-78
2023/07/26 07:50:12;;;;;;;0.10;0.10;;;;;;;15.68;100.00;96236.84;5033257;28;20045;-78
2023/07/26 07:52:58;;;;;;;0.10;0.10;;;;;;;15.45;100.00;96245.69;5039387;28;20617;-77
2023/07/26 07:55:44;;;;;;;0.20;0.20;;;;;;;15.76;100.00;96247.03;5034602;28;20256;-77
2023/07/26 07:58:29;;;;;;;0.10;0.10;;;;;;;15.78;100.00;96244.03;5019188;28;20119;-77
2023/07/26 08:01:15;;;;;;;0.10;0.10;;;;;;;15.76;100.00;96248.91;5020460;28;20464;-78
2023/07/26 08:04:02;;;;;;;0.10;0.10;;;;;;;15.92;100.00;96257.66;5002344;28;20504;-77
2023/07/26 08:06:48;;;;;;;0.10;0.10;;;;;;;16.26;100.00;96244.81;5018256;28;20045;-78
2023/07/26 08:09:34;;;;;;;0.10;0.10;;;;;;;16.72;100.00;96246.91;4986617;28;20140;-77
2023/07/26 08:12:20;;;;;;;0.13;0.13;;;;;;;16.89;100.00;96239.13;4999216;28;20048;-78
2023/07/26 08:15:06;;;;;;;0.10;0.10;;;;;;;17.14;100.00;96239.81;5014991;28;20049;-78
2023/07/26 08:17:52;;;;;;;0.10;0.10;;;;;;;17.27;100.00;96247.97;5021082;28;20446;-79
2023/07/26 08:20:38;;;;;;;0.13;0.13;;;;;;;17.22;100.00;96252.66;5023309;28;20064;-79
2023/07/26 08:23:26;;;;;;;0.10;0.10;;;;;;;16.67;100.00;96246.97;5021025;28;20037;-79
2023/07/26 08:26:12;;;;;;;0.20;0.20;;;;;;;16.64;100.00;96247.53;5022612;28;20069;-79
2023/07/26 08:28:57;;;;;;;0.10;0.10;;;;;;;16.62;100.00;96253.25;5003778;28;20048;-79
2023/07/26 08:31:43;;;;;;;0.15;0.15;;;;;;;16.53;100.00;96254.19;5019294;28;20050;-79
2023/07/26 08:34:29;;;;;;;0.10;0.10;;;;;;;16.78;100.00;96251.16;5011862;28;20813;-79
2023/07/26 08:37:18;;;;;;;0.10;0.10;;;;;;;16.69;100.00;96242.91;5019749;28;20094;-77
2023/07/26 08:40:05;;;;;;;0.10;0.10;;;;;;;16.57;100.00;96250.59;5000671;28;20046;-78
2023/07/26 08:42:51;;;;;;;0.10;0.10;;;;;;;16.38;100.00;96247.91;5016235;28;20721;-78
2023/07/26 08:45:38;;;;;;;0.10;0.10;;;;;;;16.29;100.00;96252.34;5022485;28;20119;-78
2023/07/26 08:48:24;;;;;;;0.20;0.20;;;;;;;16.59;100.00;96253.03;5020400;28;20041;-78
2023/07/26 08:51:10;;;;;;;0.10;0.10;;;;;;;16.82;100.00;96254.91;5021997;28;20124;-78
2023/07/26 08:53:57;;;;;;;0.20;0.20;;;;;;;17.03;100.00;96246.47;5022588;28;20421;-78
2023/07/26 08:56:43;;;;;;;0.20;0.20;;;;;;;16.95;100.00;96253.34;5021571;28;20058;-77
2023/07/26 08:59:29;;;;;;;0.17;0.17;;;;;;;16.09;100.00;96256.09;5017838;28;20735;-78
2023/07/26 09:02:17;;;;;;;0.10;0.10;;;;;;;15.67;100.00;96261.41;5020041;28;20492;-77
2023/07/26 09:05:04;;;;;;;0.10;0.10;;;;;;;15.99;100.00;96250.00;5023528;28;20656;-78
2023/07/26 09:07:51;;;;;;;0.10;0.10;;;;;;;17.05;100.00;96249.69;5021250;28;20126;-78
2023/07/26 09:10:40;;;;;;;0.10;0.10;;;;;;;17.94;100.00;96250.31;4992421;28;20049;-77
2023/07/26 09:13:27;;;;;;;0.10;0.10;;;;;;;17.93;100.00;96239.78;5016793;28;20038;-78
2023/07/26 09:16:13;;;;;;;0.10;0.10;;;;;;;17.34;100.00;96242.16;5023084;28;20041;-79
2023/07/26 09:19:01;;;;;;;0.10;0.10;;;;;;;17.96;100.00;96247.28;5024210;28;20434;-78
2023/07/26 09:21:47;;;;;;;0.10;0.10;;;;;;;18.23;100.00;96235.66;5022170;28;20046;-79
2023/07/26 09:24:35;;;;;;;0.10;0.10;;;;;;;17.83;100.00;96232.66;5007497;28;20042;-78
2023/07/26 09:27:21;;;;;;;0.10;0.10;;;;;;;17.34;100.00;96230.53;5010624;28;20034;-78
2023/07/26 09:30:07;;;;;;;0.13;0.13;;;;;;;16.85;100.00;96229.19;5021541;28;20472;-76
2023/07/26 09:32:56;;;;;;;0.20;0.20;;;;;;;16.94;100.00;96228.22;5018142;28;20790;-76
2023/07/26 09:35:45;;;;;;;;;;;;;;;17.17;100.00;96236.50;5021285;28;20422;-77
2023/07/26 09:38:31;;;;;;;0.20;0.20;;;;;;;17.81;100.00;96232.13;5013975;28;19916;-76
2023/07/26 09:41:22;;;;;;;0.10;0.10;;;;;;;16.95;100.00;96232.50;5021884;28;20120;-79
2023/07/26 09:44:15;;;;;;;;;;;;;;;17.42;100.00;96233.34;5021035;28;20049;-80
2023/07/26 09:47:02;;;;;;;0.20;0.20;;;;;;;18.16;100.00;96238.78;5003161;28;19932;-76
2023/07/26 09:49:50;;;;;;;0.20;0.20;;;;;;;18.68;100.00;96223.06;5017261;28;20050;-77
2023/07/26 09:52:39;;;;;;;0.15;0.15;;;;;;;18.79;97.19;96220.94;5056695;23;20533;-73
2023/07/26 09:55:27;;;;;;;0.10;0.10;;;;;;;18.09;100.00;96228.34;4986899;28;20041;-73
2023/07/26 09:58:13;;;;;;;0.10;0.10;;;;;;;17.37;100.00;96230.75;4996072;28;20053;-73
2023/07/26 10:01:01;;;;;;;0.10;0.10;;;;;;;17.04;100.00;96240.75;4994772;28;20495;-73
2023/07/26 10:03:52;;;;;;;0.10;0.10;;;;;;;16.56;100.00;96248.19;5575892;23;20426;-76
2023/07/26 10:06:41;;;;;;;0.10;0.10;;;;;;;16.33;100.00;96247.94;5015999;28;20048;-77
2023/07/26 10:09:27;;;;;;;0.10;0.10;;;;;;;16.29;100.00;96246.94;4993422;28;20042;-78
2023/07/26 10:12:14;;;;;;;0.13;0.13;;;;;;;16.35;100.00;96253.09;5010722;28;20578;-79
2023/07/26 10:15:04;;;;;;;0.10;0.10;;;;;;;16.35;100.00;96272.00;5016592;28;20042;-80
2023/07/26 10:17:51;;;;;;;0.20;0.20;;;;;;;16.02;100.00;96265.63;5018417;28;20483;-79
2023/07/26 10:20:41;;;;;;;0.20;0.20;;;;;;;15.37;100.00;96259.78;5019017;28;20045;-78
2023/07/26 10:23:30;;;;;;;0.10;0.10;;;;;;;15.17;100.00;96272.34;5020889;28;20048;-78
2023/07/26 10:26:16;;;;;;;0.10;0.10;;;;;;;15.06;100.00;96270.81;5025422;28;20115;-78
2023/07/26 10:29:02;;;;;;;0.10;0.10;;;;;;;14.85;100.00;96258.56;4999889;28;20595;-78
2023/07/26 10:31:44;;;;;;;0.10;0.10;;;;;;;14.86;100.00;96266.38;5838700;23;20057;-78
2023/07/26 10:34:30;;;;;;;0.20;0.20;;;;;;;14.99;100.00;96260.34;4991861;28;20106;-80
2023/07/26 10:37:21;;;;;;;0.17;0.17;;;;;;;14.99;100.00;96267.63;4991677;28;20456;-80
2023/07/26 10:40:29;;;;;;;0.20;0.20;;;;;;;14.59;100.00;96264.13;5022446;28;20096;-79
2023/07/26 10:43:39;;;;;;;0.10;0.10;;;;;;;14.60;100.00;96279.19;5019694;28;20120;-76
2023/07/26 10:46:25;;;;;;;0.10;0.10;;;;;;;14.51;100.00;96270.09;5036281;28;20130;-78
2023/07/26 10:49:37;;;;;;;0.10;0.10;;;;;;;14.86;100.00;96265.56;5033467;28;20072;-77
2023/07/26 10:52:35;;;;;;;0.20;0.20;;;;;;;15.46;100.00;96261.56;5023534;28;20036;-78
2023/07/26 10:58:34;;;;;;;0.15;0.15;;;;;;;17.29;100.00;96273.91;5174889;23;20133;-75
2023/07/26 11:01:41;;;;;;;0.20;0.20;;;;;;;17.86;100.00;96266.44;5012648;28;20037;-76
2023/07/26 11:04:27;;;;;;;0.20;0.20;;;;;;;18.89;100.00;96270.28;5076142;23;20104;-77
2023/07/26 11:07:14;;;;;;;0.20;0.20;;;;;;;19.25;100.00;96257.81;5022555;28;20479;-76
2023/07/26 11:10:18;;;;;;;0.20;0.20;;;;;;;19.52;100.00;96243.28;5034669;28;20559;-79
2023/07/26 11:13:08;;;;;;;0.10;0.10;;;;;;;20.59;98.81;96252.06;5022119;28;20045;-79
2023/07/26 11:15:54;;;;;;;0.13;0.13;;;;;;;19.87;100.00;96253.25;5032434;28;20041;-78
2023/07/26 11:18:41;;;;;;;0.10;0.10;;;;;;;19.89;100.00;96253.72;5032336;28;20489;-78
2023/07/26 11:21:27;;;;;;;0.13;0.13;;;;;;;19.77;100.00;96250.81;5035503;28;20190;-78
2023/07/26 11:24:12;;;;;;;0.10;0.10;;;;;;;19.33;100.00;96240.78;5034571;28;20161;-79
2023/07/26 11:27:04;;;;;;;0.10;0.10;;;;;;;18.86;100.00;96260.06;5034447;28;20530;-77
2023/07/26 11:29:50;;;;;;;0.10;0.10;;;;;;;18.74;100.00;96250.84;5035993;28;20045;-77
2023/07/26 11:32:42;;;;;;;0.10;0.10;;;;;;;18.95;95.63;96257.41;5021398;28;20036;-77
2023/07/26 11:35:41;;;;;;;0.10;0.10;;;;;;;19.44;100.00;96242.13;5036234;28;20293;-78
2023/07/26 11:38:27;;;;;;;0.20;0.20;;;;;;;21.68;93.02;96240.97;5035536;28;20060;-78
2023/07/26 11:41:20;;;;;;;0.20;0.20;;;;;;;23.75;78.75;96236.13;5033827;28;20773;-78
2023/07/26 11:44:05;;;;;;;0.10;0.10;;;;;;;22.68;84.38;96240.38;5039445;28;20083;-78
2023/07/26 11:46:51;;;;;;;0.20;0.20;;;;;;;22.84;85.73;96237.84;5038021;28;20054;-79
2023/07/26 11:49:37;;;;;;;0.10;0.10;;;;;;;25.22;70.40;96239.59;5039561;28;20801;-77
2023/07/26 11:52:23;;;;;;;0.10;0.10;;;;;;;27.94;47.48;96231.06;5038030;28;20106;-78
2023/07/26 11:55:09;;;;;;;0.10;0.10;;;;;;;26.91;56.17;96235.25;5021553;28;20485;-78
2023/07/26 11:57:55;;;;;;;0.10;0.10;;;;;;;24.49;67.41;96247.91;5023050;28;20045;-78
2023/07/26 12:00:46;;;;;;;0.10;0.10;;;;;;;22.65;83.64;96253.88;5039002;28;20090;-79
2023/07/26 12:03:35;;;;;;;0.10;0.10;;;;;;;21.82;90.13;96248.97;5042243;28;20721;-79
2023/07/26 12:06:28;;;;;;;0.00;0.00;;;;;;;20.91;86.85;96258.97;5040864;28;20039;-78
2023/07/26 12:09:14;;;;;;;0.10;0.10;;;;;;;19.88;93.35;96256.75;5030078;28;20518;-78
2023/07/26 12:12:00;;;;;;;0.10;0.10;;;;;;;19.43;98.27;96259.50;5037974;28;20037;-80
2023/07/26 12:14:45;;;;;;;0.20;0.20;;;;;;;18.90;99.46;96254.81;5039811;28;20140;-79
2023/07/26 12:17:31;;;;;;;0.10;0.10;;;;;;;18.54;100.00;96250.16;5034571;28;20036;-78
2023/07/26 12:20:17;;;;;;;0.10;0.10;;;;;;;18.20;100.00;96252.50;5021852;28;20516;-78
2023/07/26 12:23:05;;;;;;;0.10;0.10;;;;;;;17.87;100.00;96276.16;5037834;28;20076;-78
2023/07/26 12:25:53;;;;;;;0.10;0.10;;;;;;;17.25;100.00;96281.78;5033084;28;20128;-77
2023/07/26 12:28:39;;;;;;;0.10;0.10;;;;;;;17.03;100.00;96289.69;5029352;28;20043;-77
2023/07/26 12:31:28;;;;;;;0.10;0.10;;;;;;;16.64;100.00;96305.06;5034283;28;20037;-77
2023/07/26 12:34:15;;;;;;;0.10;0.10;;;;;;;16.30;100.00;96321.44;5036474;28;20123;-78
2023/07/26 12:37:00;;;;;;;0.10;0.10;;;;;;;16.09;100.00;96330.84;5036642;28;20041;-79
2023/07/26 12:39:48;;;;;;;0.10;0.10;;;;;;;16.04;100.00;96337.13;5036123;28;20033;-77
2023/07/26 12:42:35;;;;;;;0.10;0.10;;;;;;;15.56;100.00;96339.72;5035410;28;20632;-77
2023/07/26 12:45:21;;;;;;;0.10;0.10;;;;;;;15.14;100.00;96337.59;5034942;28;20110;-77
2023/07/26 12:48:06;;;;;;;0.10;0.10;;;;;;;14.34;100.00;96353.06;5036546;28;21026;-77
2023/07/26 12:50:54;;;;;;;0.20;0.20;;;;;;;14.19;100.00;96349.34;5036061;28;20051;-78
2023/07/26 12:53:40;;;;;;;0.10;0.10;;;;;;;13.75;100.00;96351.03;5035403;28;20049;-79
2023/07/26 12:56:26;;;;;;;0.10;0.10;;;;;;;14.05;100.00;96345.59;5036582;28;20048;-77
2023/07/26 12:59:12;;;;;;;0.10;0.10;;;;;;;14.50;100.00;96346.56;5035246;28;20049;-78
2023/07/26 13:01:58;;;;;;;0.10;0.10;;;;;;;14.80;100.00;96315.19;5038613;28;20388;-78